createdAt,value
2019-04-04T10:50:57.447Z,17.02
2019-04-04T10:53:34.759Z,16.35
2019-04-04T10:56:05.255Z,16.28
2019-04-04T10:58:35.648Z,16.56
2019-04-04T11:01:06.107Z,17.20
2019-04-04T11:03:36.528Z,17.13
2019-04-04T11:06:07.075Z,17.77
2019-04-04T11:08:37.497Z,17.62
2019-04-04T11:11:08.147Z,17.69
2019-04-04T11:13:38.637Z,17.28
2019-04-04T11:16:09.094Z,16.67
2019-04-04T11:18:39.528Z,17.46
2019-04-04T11:21:09.928Z,17.46
2019-04-04T11:23:40.336Z,17.54
2019-04-04T11:26:10.727Z,17.19
2019-04-04T11:28:41.137Z,17.03
2019-04-04T11:31:11.568Z,17.51
2019-04-04T11:33:41.975Z,17.71
2019-04-04T11:36:12.809Z,18.14
2019-04-04T11:38:44.247Z,18.11
2019-04-04T11:41:16.767Z,17.77
2019-04-04T11:43:48.116Z,17.96
2019-04-04T11:46:18.570Z,17.68
2019-04-04T11:48:48.947Z,17.94
2019-04-04T11:51:20.569Z,17.95
2019-04-04T11:53:50.988Z,18.29
2019-04-04T11:56:21.511Z,18.06
2019-04-04T11:58:52.093Z,18.38
2019-04-04T12:01:24.115Z,18.32
2019-04-04T12:03:54.858Z,18.07
2019-04-04T12:06:25.269Z,17.81
2019-04-04T12:08:55.748Z,17.35
2019-04-04T12:11:26.159Z,17.95
2019-04-04T12:13:56.631Z,17.56
2019-04-04T12:16:27.129Z,17.56
2019-04-04T12:18:57.719Z,17.68
2019-04-04T12:21:28.169Z,18.36
2019-04-04T12:23:58.714Z,18.23
2019-04-04T12:26:29.328Z,18.14
2019-04-04T12:28:59.855Z,17.95
2019-04-04T12:31:33.649Z,17.83
2019-04-04T12:34:11.781Z,18.01
2019-04-04T12:36:47.567Z,17.57
2019-04-04T12:39:28.108Z,17.66
2019-04-04T12:41:59.359Z,18.02
2019-04-04T12:44:29.985Z,18.23
2019-04-04T12:47:00.438Z,18.12
2019-04-04T12:49:34.995Z,18.23
2019-04-04T12:52:10.019Z,17.95
2019-04-04T12:54:40.801Z,17.95
2019-04-04T12:57:11.330Z,18.16
2019-04-04T12:59:42.090Z,17.76
2019-04-04T13:02:12.535Z,18.13
2019-04-04T13:04:43.048Z,18.07
2019-04-04T13:07:15.288Z,18.38
2019-04-04T13:09:46.068Z,18.69
2019-04-04T13:12:16.548Z,18.76
2019-04-04T13:14:48.828Z,18.74
2019-04-04T13:17:19.320Z,18.54
2019-04-04T13:19:50.291Z,17.70
2019-04-04T13:22:20.790Z,17.94
2019-04-04T13:24:51.590Z,17.77
2019-04-04T13:27:22.029Z,17.78
2019-04-04T13:29:52.615Z,17.28
2019-04-04T13:32:23.137Z,17.32
2019-04-04T13:34:59.703Z,16.97
2019-04-04T13:37:26.151Z,16.57
2019-04-04T13:39:56.674Z,16.45
2019-04-04T13:42:27.149Z,16.67
2019-04-04T13:44:57.624Z,16.81
2019-04-04T13:47:28.229Z,16.61
2019-04-04T13:49:58.709Z,16.61
2019-04-04T13:52:29.177Z,16.53
2019-04-04T13:55:00.935Z,16.84
2019-04-04T13:57:31.455Z,16.99
2019-04-04T14:00:01.928Z,17.11
2019-04-04T14:02:32.990Z,17.58
2019-04-04T14:05:09.877Z,17.64
2019-04-04T14:07:36.180Z,17.89
2019-04-04T14:10:08.260Z,17.71
2019-04-04T14:12:39.889Z,17.59
2019-04-04T14:15:11.459Z,16.92
2019-04-04T14:17:43.978Z,16.72
2019-04-04T14:20:14.668Z,16.60
2019-04-04T14:22:45.128Z,16.59
2019-04-04T14:25:15.769Z,16.52
2019-04-04T14:27:46.308Z,16.54
2019-04-04T14:30:18.510Z,16.40
2019-04-04T14:32:48.962Z,16.18
2019-04-04T14:35:19.378Z,15.82
2019-04-04T14:37:49.813Z,15.70
2019-04-04T14:40:20.442Z,15.75
2019-04-04T14:42:50.862Z,15.97
2019-04-04T14:45:21.509Z,16.43
2019-04-04T14:47:51.928Z,16.41
2019-04-04T14:50:22.408Z,16.25
2019-04-04T14:52:52.818Z,16.23
2019-04-04T14:55:23.437Z,16.29
2019-04-04T14:57:53.955Z,16.42
2019-04-04T15:00:24.618Z,16.46
2019-04-04T15:02:55.048Z,15.82
2019-04-04T15:05:25.609Z,16.19
2019-04-04T15:07:56.227Z,16.49
2019-04-04T15:10:30.200Z,16.45
2019-04-04T15:13:00.833Z,15.92
2019-04-04T15:15:31.431Z,16.02
2019-04-04T15:18:01.874Z,15.58
2019-04-04T15:20:32.427Z,15.98
2019-04-04T15:23:03.266Z,15.91
2019-04-04T15:25:34.155Z,15.62
2019-04-04T15:28:05.102Z,15.57
2019-04-04T15:30:35.794Z,15.30
2019-04-04T15:33:06.285Z,15.19
2019-04-04T15:35:37.152Z,15.07
2019-04-04T15:38:07.696Z,14.90
2019-04-04T15:40:38.563Z,14.78
2019-04-04T15:43:09.056Z,14.63
2019-04-04T15:45:39.754Z,14.83
2019-04-04T15:48:10.283Z,14.87
2019-04-04T15:50:40.858Z,14.63
2019-04-04T15:53:11.398Z,14.33
2019-04-04T15:55:41.935Z,14.27
2019-04-04T15:58:13.592Z,14.03
2019-04-04T16:00:44.241Z,13.62
2019-04-04T16:03:14.774Z,13.75
2019-04-04T16:05:45.479Z,13.83
2019-04-04T16:08:16.543Z,13.45
2019-04-04T16:10:47.077Z,13.33
2019-04-04T16:13:17.619Z,13.37
2019-04-04T16:15:48.435Z,13.41
2019-04-04T16:18:18.998Z,13.16
2019-04-04T16:20:49.595Z,13.16
2019-04-04T16:23:20.058Z,13.00
2019-04-04T16:25:52.275Z,12.64
2019-04-04T16:28:22.953Z,12.64
2019-04-04T16:30:53.518Z,12.69
2019-04-04T16:33:26.390Z,12.50
2019-04-04T16:35:56.276Z,12.44
2019-04-04T16:38:26.896Z,12.55
2019-04-04T16:41:00.290Z,12.29
2019-04-04T16:43:29.679Z,12.19
2019-04-04T16:46:00.293Z,12.04
2019-04-04T16:48:30.758Z,12.13
2019-04-04T16:51:01.297Z,12.09
2019-04-04T16:53:31.833Z,12.00
2019-04-04T16:56:02.457Z,11.81
2019-04-04T16:58:32.898Z,11.68
2019-04-04T17:01:04.503Z,11.69
2019-04-04T17:03:35.153Z,11.68
2019-04-04T17:06:05.894Z,11.61
2019-04-04T17:08:36.546Z,11.66
2019-04-04T17:11:07.175Z,11.50
2019-04-04T17:13:39.693Z,11.52
2019-04-04T17:16:10.177Z,11.43
2019-04-04T17:18:40.896Z,11.40
2019-04-04T17:21:11.505Z,11.24
2019-04-04T17:23:43.462Z,11.14
2019-04-04T17:26:14.017Z,11.04
2019-04-04T17:28:45.866Z,10.90
2019-04-04T17:31:16.823Z,10.99
2019-04-04T17:33:48.178Z,10.99
2019-04-04T17:36:21.415Z,11.07
2019-04-04T17:38:54.843Z,11.01
2019-04-04T17:41:24.256Z,10.73
2019-04-04T17:43:55.326Z,10.83
2019-04-04T17:46:26.279Z,10.84
2019-04-04T17:48:56.902Z,10.85
2019-04-04T17:51:27.422Z,10.89
2019-04-04T17:53:58.192Z,10.79
2019-04-04T17:56:28.756Z,10.78
2019-04-04T17:58:59.305Z,10.71
2019-04-04T18:01:29.782Z,10.76
2019-04-04T18:04:00.420Z,10.72
2019-04-04T18:06:30.957Z,10.68
2019-04-04T18:09:01.885Z,10.64
2019-04-04T18:11:34.153Z,10.49
2019-04-04T18:14:05.403Z,10.30
2019-04-04T18:16:35.946Z,9.93
2019-04-04T18:19:06.713Z,10.07
2019-04-04T18:21:38.354Z,10.22
2019-04-04T18:24:09.217Z,10.24
2019-04-04T18:26:39.675Z,10.25
2019-04-04T18:29:10.280Z,10.25
2019-04-04T18:31:40.717Z,10.24
2019-04-04T18:34:11.295Z,10.36
2019-04-04T18:36:41.816Z,10.36
2019-04-04T18:39:12.757Z,10.35
2019-04-04T18:41:43.192Z,10.33
2019-04-04T18:44:13.817Z,10.30
2019-04-04T18:46:44.274Z,10.32
2019-04-04T18:49:14.933Z,10.35
2019-04-04T18:51:45.394Z,10.32
2019-04-04T18:54:15.923Z,10.36
2019-04-04T18:56:46.454Z,10.37
2019-04-04T18:59:17.221Z,10.26
2019-04-04T19:01:47.895Z,10.29
2019-04-04T19:04:18.677Z,10.23
2019-04-04T19:06:49.435Z,10.20
2019-04-04T19:09:20.159Z,10.25
2019-04-04T19:11:50.633Z,10.22
2019-04-04T19:14:23.075Z,10.19
2019-04-04T19:16:55.335Z,10.21
2019-04-04T19:19:25.856Z,10.18
2019-04-04T19:21:56.379Z,10.21
2019-04-04T19:24:26.962Z,10.12
2019-04-04T19:26:57.825Z,10.14
2019-04-04T19:29:28.378Z,10.16
2019-04-04T19:31:58.917Z,10.04
2019-04-04T19:34:29.556Z,10.00
2019-04-04T19:37:00.094Z,10.04
2019-04-04T19:39:30.854Z,10.06
2019-04-04T19:42:01.398Z,9.94
2019-04-04T19:44:32.098Z,9.90
2019-04-04T19:47:02.617Z,9.72
2019-04-04T19:49:33.215Z,9.71
2019-04-04T19:52:03.774Z,9.81
2019-04-04T19:54:34.636Z,9.71
2019-04-04T19:57:05.257Z,9.54
2019-04-04T19:59:35.975Z,9.62
2019-04-04T20:02:06.534Z,9.37
2019-04-04T20:04:37.042Z,9.52
2019-04-04T20:07:07.557Z,9.45
2019-04-04T20:09:38.299Z,9.22
2019-04-04T20:12:08.835Z,9.26
2019-04-04T20:14:39.515Z,9.39
2019-04-04T20:17:09.956Z,9.55
2019-04-04T20:19:40.716Z,9.62
2019-04-04T20:22:11.375Z,9.59
2019-04-04T20:24:41.917Z,9.70
2019-04-04T20:27:14.075Z,9.73
2019-04-04T20:29:44.636Z,9.78
2019-04-04T20:32:15.269Z,9.79
2019-04-04T20:34:46.892Z,9.77
2019-04-04T20:37:17.513Z,9.83
2019-04-04T20:39:48.053Z,9.72
2019-04-04T20:42:18.498Z,9.74
2019-04-04T20:44:49.235Z,9.39
2019-04-04T20:47:21.595Z,9.51
2019-04-04T20:49:52.205Z,9.65
2019-04-04T20:52:22.816Z,9.22
2019-04-04T20:54:53.735Z,9.15
2019-04-04T20:57:24.338Z,9.14
2019-04-04T20:59:56.535Z,9.12
2019-04-04T21:02:27.062Z,9.04
2019-04-04T21:04:57.678Z,9.10
2019-04-04T21:07:28.194Z,9.08
2019-04-04T21:09:58.719Z,8.85
2019-04-04T21:12:29.257Z,8.89
2019-04-04T21:14:59.994Z,8.63
2019-04-04T21:17:30.708Z,8.60
2019-04-04T21:20:01.260Z,8.56
2019-04-04T21:22:31.720Z,8.36
2019-04-04T21:25:02.193Z,8.20
2019-04-04T21:27:32.676Z,8.36
2019-04-04T21:30:03.315Z,8.22
2019-04-04T21:32:33.762Z,7.98
2019-04-04T21:35:06.055Z,7.81
2019-04-04T21:37:36.522Z,7.72
2019-04-04T21:40:08.119Z,7.72
2019-04-04T21:42:38.647Z,7.62
2019-04-04T21:45:09.613Z,7.60
2019-04-04T21:47:40.172Z,7.47
2019-04-04T21:50:10.955Z,7.53
2019-04-04T21:52:41.596Z,7.52
2019-04-04T21:55:12.595Z,7.54
2019-04-04T21:57:43.099Z,7.69
2019-04-04T22:00:14.275Z,7.52
2019-04-04T22:02:46.434Z,7.62
2019-04-04T22:05:17.072Z,7.57
2019-04-04T22:07:47.594Z,7.66
2019-04-04T22:10:18.242Z,7.62
2019-04-04T22:12:48.792Z,7.56
2019-04-04T22:15:19.296Z,7.63
2019-04-04T22:17:49.875Z,7.58
2019-04-04T22:20:20.536Z,7.57
2019-04-04T22:22:50.994Z,7.53
2019-04-04T22:25:23.243Z,7.63
2019-04-04T22:27:53.756Z,7.66
2019-04-04T22:30:24.254Z,7.39
2019-04-04T22:32:54.737Z,7.42
2019-04-04T22:35:25.235Z,7.37
2019-04-04T22:37:56.159Z,7.37
2019-04-04T22:40:26.674Z,7.37
2019-04-04T22:42:57.697Z,7.40
2019-04-04T22:45:28.217Z,7.30
2019-04-04T22:48:00.095Z,7.27
2019-04-04T22:50:32.415Z,7.47
2019-04-04T22:53:03.215Z,7.41
2019-04-04T22:55:33.677Z,7.43
2019-04-04T22:58:04.235Z,7.39
2019-04-04T23:00:34.815Z,7.36
2019-04-04T23:03:07.074Z,7.32
2019-04-04T23:05:37.537Z,7.27
2019-04-04T23:08:08.059Z,7.19
2019-04-04T23:10:38.497Z,7.07
2019-04-04T23:13:09.178Z,7.09
2019-04-04T23:15:39.679Z,7.10
2019-04-04T23:18:10.676Z,7.05
2019-04-04T23:20:41.638Z,6.92
2019-04-04T23:23:12.135Z,6.85
2019-04-04T23:25:43.597Z,6.80
2019-04-04T23:28:14.197Z,6.66
2019-04-04T23:30:45.735Z,6.51
2019-04-04T23:33:16.217Z,6.63
2019-04-04T23:35:46.811Z,6.64
2019-04-04T23:38:17.318Z,7.14
2019-04-04T23:40:47.835Z,7.64
2019-04-04T23:43:18.336Z,7.61
2019-04-04T23:45:49.056Z,7.46
2019-04-04T23:48:19.675Z,7.24
2019-04-04T23:50:50.141Z,7.83
2019-04-04T23:53:22.354Z,7.98
2019-04-04T23:55:52.902Z,8.20
2019-04-04T23:58:23.506Z,8.26
